Accueil
METAR-TAF:

METAR-TAF

Aéroports :

Sedalia, Missouri, États-Unis

latitude: 38-42-44N, longitude: 093-10-28W, altitude: 277 m

Observation

Le bulletin a été fait il y a 26 minutes, à 17:53 UTC
Vent 11 kt de sud/sud-est avec des rafales jusqu'à 21 kt
Température 20°C
Humidité 40%
Pression 1014 hPa
Visibilité: 16.1 km
Nuages épars à une hauteur de 11000 ft

METAR: KDMO 021753Z AUTO 15011G21KT 10SM SCT110 20/06 A2995 RMK AO2 SLP138 T02000056 10206 20133 56007

Heure: 13:19 (18:19 UTC)


TAF: absent

Observations et prévisions météorologiques de plus de 4000 aéroports (messages METAR et TAF).

Les stations disponibles sont représentées par des disques jaunes et rouges sur la carte.

Passer la souris dessus pour voir le nom de la station.

Cliquer dessus pour voir les observations et prévisions météorologiques.

Pour changer de carte: cliquez sur les boutons verts avec une croix noire pour zoomer, sur le bouton vert avec un tiret pour effectuer un zoom arrière, ou sur les flèches vertes pour les cartes adjacentes.


METAR-TAF: